createdAt,value
2022-08-04T00:03:28.222Z,17.90
2022-08-04T00:08:55.611Z,18.30
2022-08-04T00:14:11.700Z,18.10
2022-08-04T00:19:18.297Z,18.40
2022-08-04T00:24:22.055Z,17.90
2022-08-04T00:29:25.125Z,18.60
2022-08-04T00:34:29.266Z,18.90
2022-08-04T00:39:32.683Z,18.00
2022-08-04T00:44:46.756Z,19.00
2022-08-04T00:50:10.557Z,19.10
2022-08-04T00:55:34.564Z,18.50
2022-08-04T01:01:13.584Z,19.00
2022-08-04T01:06:30.557Z,19.30
2022-08-04T01:11:56.665Z,19.70
2022-08-04T01:17:33.524Z,19.90
2022-08-04T01:23:07.117Z,20.40
2022-08-04T01:28:29.173Z,19.80
2022-08-04T01:34:02.961Z,20.20
2022-08-04T01:38:58.074Z,20.80
2022-08-04T01:44:01.277Z,20.50
2022-08-04T01:49:03.898Z,20.30
2022-08-04T01:54:09.305Z,19.70
2022-08-04T01:59:15.483Z,20.90
2022-08-04T02:04:23.426Z,20.80
2022-08-04T02:09:54.084Z,20.50
2022-08-04T02:15:03.833Z,21.10
2022-08-04T02:20:12.124Z,21.10
2022-08-04T02:25:22.115Z,21.20
2022-08-04T02:30:33.097Z,21.40
2022-08-04T02:35:38.497Z,21.50
2022-08-04T02:40:42.493Z,21.50
2022-08-04T02:45:47.966Z,21.50
2022-08-04T02:50:52.189Z,21.80
2022-08-04T02:56:00.673Z,21.10
2022-08-04T03:01:04.666Z,21.20
2022-08-04T03:06:38.279Z,22.00
2022-08-04T03:12:02.211Z,21.90
2022-08-04T03:17:53.281Z,22.40
2022-08-04T03:23:23.816Z,22.30
2022-08-04T03:28:35.321Z,22.40
2022-08-04T03:34:09.527Z,23.30
2022-08-04T03:39:26.763Z,23.40
2022-08-04T03:44:44.680Z,22.90
2022-08-04T03:50:05.566Z,23.20
2022-08-04T03:55:38.689Z,22.50
2022-08-04T04:00:58.104Z,23.70
2022-08-04T04:06:19.154Z,23.40
2022-08-04T04:11:55.390Z,23.50
2022-08-04T04:17:15.171Z,23.50
2022-08-04T04:22:48.115Z,23.30
2022-08-04T04:27:50.500Z,23.50
2022-08-04T04:33:03.386Z,22.90
2022-08-04T04:38:43.197Z,23.30
2022-08-04T04:44:20.591Z,23.40
2022-08-04T04:49:39.310Z,23.40
2022-08-04T04:54:53.171Z,23.40
2022-08-04T05:00:16.070Z,23.70
2022-08-04T05:05:21.434Z,24.40
2022-08-04T05:11:18.878Z,24.30
2022-08-04T05:16:39.831Z,24.20
2022-08-04T05:21:48.355Z,24.20
2022-08-04T05:26:55.129Z,24.90
2022-08-04T05:31:59.538Z,24.40
2022-08-04T05:37:11.163Z,24.50
2022-08-04T05:42:14.639Z,25.20
2022-08-04T05:47:18.452Z,25.20
2022-08-04T05:52:21.773Z,24.60
2022-08-04T05:57:25.996Z,24.70
2022-08-04T06:02:30.395Z,25.50
2022-08-04T06:07:32.637Z,25.50
2022-08-04T06:12:47.493Z,25.10
2022-08-04T06:19:57.315Z,25.90
2022-08-04T06:23:23.433Z,24.20
2022-08-04T06:28:27.882Z,24.90
2022-08-04T06:33:33.707Z,24.20
2022-08-04T06:38:58.283Z,21.20
2022-08-04T06:44:05.150Z,21.60
2022-08-04T06:49:08.350Z,20.20
2022-08-04T06:54:10.549Z,20.50
2022-08-04T06:59:14.160Z,20.60
2022-08-04T07:04:16.533Z,20.40
2022-08-04T07:09:19.109Z,18.60
2022-08-04T07:14:22.534Z,17.90
2022-08-04T07:19:24.923Z,17.70
2022-08-04T07:24:35.620Z,16.80
2022-08-04T07:29:38.772Z,16.50
2022-08-04T07:34:42.875Z,16.20
2022-08-04T07:39:52.213Z,15.40
2022-08-04T07:44:54.550Z,15.40
2022-08-04T07:49:58.112Z,15.40
2022-08-04T07:55:00.967Z,15.30
2022-08-04T08:00:05.725Z,14.70
2022-08-04T08:05:16.948Z,14.10
2022-08-04T08:10:19.193Z,13.70
2022-08-04T08:15:22.493Z,13.80
2022-08-04T08:20:29.047Z,13.30
2022-08-04T08:25:33.741Z,12.90
2022-08-04T08:30:36.918Z,12.60
2022-08-04T08:35:55.033Z,11.80
2022-08-04T08:41:09.715Z,11.80
2022-08-04T08:46:49.654Z,11.10
2022-08-04T08:53:01.244Z,9.50
2022-08-04T08:58:16.051Z,10.20
2022-08-04T09:03:27.270Z,9.80
2022-08-04T09:08:41.280Z,9.60
2022-08-04T09:14:25.305Z,9.50
2022-08-04T09:19:38.287Z,9.10
2022-08-04T09:25:18.593Z,8.70
2022-08-04T09:30:31.559Z,8.60
2022-08-04T09:35:47.121Z,8.30
2022-08-04T09:41:07.390Z,7.50
2022-08-04T09:46:37.022Z,7.60
2022-08-04T09:51:57.547Z,7.30
2022-08-04T09:57:26.704Z,6.80
2022-08-04T10:09:14.360Z,6.30
2022-08-04T10:14:29.020Z,6.00
2022-08-04T10:19:38.243Z,5.40
2022-08-04T10:26:03.531Z,5.50
2022-08-04T10:30:34.012Z,4.80
2022-08-04T10:36:04.343Z,4.00
2022-08-04T10:41:11.348Z,4.40
2022-08-04T10:46:37.505Z,3.90
2022-08-04T10:51:58.058Z,3.60
2022-08-04T10:57:10.629Z,3.30
2022-08-04T11:02:34.458Z,2.50
2022-08-04T11:07:39.224Z,2.20
2022-08-04T11:12:44.147Z,1.20
2022-08-04T11:18:16.453Z,1.00
2022-08-04T11:23:24.039Z,1.00
2022-08-04T11:28:38.294Z,1.00
2022-08-04T11:34:04.822Z,1.00
2022-08-04T11:39:24.493Z,1.00
2022-08-04T11:44:48.976Z,1.00
2022-08-04T11:50:34.711Z,1.00
2022-08-04T11:56:09.416Z,1.00
2022-08-04T12:01:36.028Z,1.00
2022-08-04T12:07:04.505Z,1.00
2022-08-04T12:12:30.856Z,1.00
2022-08-04T12:17:53.418Z,1.00
2022-08-04T12:22:56.284Z,1.00
2022-08-04T12:28:17.334Z,1.00
2022-08-04T12:34:03.093Z,1.00
2022-08-04T12:39:29.662Z,1.00
2022-08-04T12:44:38.278Z,1.00
2022-08-04T12:49:47.529Z,1.00
2022-08-04T12:55:05.583Z,1.00
2022-08-04T13:00:09.608Z,1.00
2022-08-04T13:05:16.775Z,1.00
2022-08-04T13:10:30.531Z,1.00
2022-08-04T13:15:33.546Z,1.00
2022-08-04T13:20:49.908Z,1.00
2022-08-04T13:26:44.709Z,1.00
2022-08-04T13:31:21.884Z,1.00
2022-08-04T13:36:26.028Z,1.00
2022-08-04T13:41:31.201Z,1.00
2022-08-04T13:46:40.551Z,1.00
2022-08-04T13:51:57.499Z,1.00
2022-08-04T13:57:02.627Z,1.00
2022-08-04T14:02:10.045Z,1.00
2022-08-04T14:07:16.117Z,1.00
2022-08-04T14:12:38.418Z,1.00
2022-08-04T14:17:47.245Z,1.00
2022-08-04T14:22:49.425Z,1.00
2022-08-04T14:27:57.225Z,1.00
2022-08-04T14:34:00.696Z,1.00
2022-08-04T14:38:42.864Z,1.00
2022-08-04T14:43:46.410Z,1.00
2022-08-04T14:49:10.403Z,1.00
2022-08-04T14:54:18.573Z,1.00
2022-08-04T14:59:22.104Z,1.00
2022-08-04T15:04:26.051Z,1.00
2022-08-04T15:09:28.833Z,1.00
2022-08-04T15:14:37.507Z,1.00
2022-08-04T15:19:40.719Z,1.00
2022-08-04T15:24:58.285Z,1.00
2022-08-04T15:30:04.924Z,1.00
2022-08-04T15:35:12.971Z,1.00
2022-08-04T15:40:33.071Z,1.00
2022-08-04T15:46:02.383Z,1.00
2022-08-04T15:51:30.462Z,1.00
2022-08-04T15:56:34.943Z,1.00
2022-08-04T16:01:37.135Z,1.00
2022-08-04T16:06:39.270Z,1.00
2022-08-04T16:11:41.444Z,1.00
2022-08-04T16:16:44.995Z,1.00
2022-08-04T16:21:50.085Z,1.00
2022-08-04T16:26:57.711Z,1.00
2022-08-04T16:32:06.091Z,1.00
2022-08-04T16:37:13.204Z,1.00
2022-08-04T16:42:30.664Z,1.00
2022-08-04T16:47:48.087Z,1.00
2022-08-04T16:52:53.329Z,1.00
2022-08-04T16:58:01.150Z,1.00
2022-08-04T17:03:05.532Z,1.00
2022-08-04T17:14:02.816Z,1.00
2022-08-04T17:18:57.752Z,1.00
2022-08-04T17:24:12.599Z,1.00
2022-08-04T17:29:19.728Z,1.00
2022-08-04T17:34:26.428Z,1.00
2022-08-04T17:39:34.834Z,1.00
2022-08-04T17:44:40.479Z,1.00
2022-08-04T17:49:44.494Z,1.00
2022-08-04T17:55:02.790Z,1.00
2022-08-04T18:00:05.923Z,1.00
2022-08-04T18:05:12.338Z,1.00
2022-08-04T18:10:31.091Z,1.00
2022-08-04T18:15:44.469Z,1.00
2022-08-04T18:20:50.149Z,1.00
2022-08-04T18:26:23.635Z,1.00
2022-08-04T18:31:27.763Z,1.00
2022-08-04T18:36:34.250Z,1.00
2022-08-04T18:42:00.754Z,1.00
2022-08-04T18:47:19.148Z,1.00
2022-08-04T18:52:23.974Z,1.00
2022-08-04T18:57:58.405Z,1.00
2022-08-04T19:02:51.602Z,2.00
2022-08-04T19:08:11.206Z,2.00
2022-08-04T19:13:25.091Z,2.90
2022-08-04T19:18:31.025Z,3.00
2022-08-04T19:24:28.102Z,3.40
2022-08-04T19:28:56.458Z,4.10
2022-08-04T19:39:21.564Z,4.30
2022-08-04T19:44:24.126Z,4.30
2022-08-04T19:50:05.406Z,4.60
2022-08-04T19:54:49.401Z,5.20
2022-08-04T19:59:51.631Z,5.60
2022-08-04T20:04:57.397Z,5.80
2022-08-04T20:10:00.159Z,6.10
2022-08-04T20:15:07.712Z,6.60
2022-08-04T20:20:15.152Z,6.80
2022-08-04T20:25:27.419Z,7.10
2022-08-04T20:30:38.439Z,7.10
2022-08-04T20:35:45.974Z,7.20
2022-08-04T20:41:07.158Z,6.40
2022-08-04T20:46:18.112Z,7.70
2022-08-04T20:51:33.459Z,7.10
2022-08-04T20:56:36.552Z,8.00
2022-08-04T21:01:38.801Z,8.10
2022-08-04T21:06:41.072Z,8.60
2022-08-04T21:11:52.824Z,7.60
2022-08-04T21:16:57.892Z,8.10
2022-08-04T21:22:01.312Z,8.00
2022-08-04T21:27:06.269Z,8.00
2022-08-04T21:32:11.985Z,8.40
2022-08-04T21:37:16.355Z,8.10
2022-08-04T21:42:28.650Z,8.50
2022-08-04T21:47:45.962Z,8.00
2022-08-04T21:52:49.799Z,8.40
2022-08-04T21:57:54.098Z,8.60
2022-08-04T22:02:57.457Z,8.70
2022-08-04T22:07:59.648Z,8.90
2022-08-04T22:13:07.126Z,9.00
2022-08-04T22:18:10.035Z,9.00
2022-08-04T22:23:16.805Z,9.10
2022-08-04T22:28:21.621Z,9.10
2022-08-04T22:33:54.615Z,9.20
2022-08-04T22:38:56.833Z,9.40
2022-08-04T22:44:13.527Z,9.60
2022-08-04T22:49:17.585Z,9.80
2022-08-04T22:54:29.587Z,10.80
2022-08-04T22:59:34.119Z,10.40
2022-08-04T23:04:36.327Z,10.30
2022-08-04T23:09:51.105Z,10.20
2022-08-04T23:14:57.481Z,10.60
2022-08-04T23:20:00.339Z,9.60
2022-08-04T23:25:03.897Z,10.30
2022-08-04T23:30:07.050Z,10.10
2022-08-04T23:35:10.193Z,9.90
2022-08-04T23:40:33.673Z,9.70
2022-08-04T23:46:04.169Z,9.60
2022-08-04T23:51:13.682Z,9.30
2022-08-04T23:56:19.675Z,9.40
